Terminal Aerodrome Forecast
Issued by NWS Detroit/Pontiac, MI

Home | Current Version | Previous Version | Text Only | Print | Product List | Glossary On
Versions: 1 2 3 4 5 6 7 8 9 10 11 12 13 14 15 16 17 18 19
000
FTUS43 KDTX 271957 AAA
TAFFNT
TAF AMD
KFNT 271957Z 2720/2818 25016G26KT P6SM SCT040 BKN100
     FM272200 26014G20KT P6SM BKN040
     FM280200 29006KT P6SM SCT040
     FM280800 VRB04KT 6SM BR SCT030
     FM281400 18007KT P6SM BKN040=

USA.gov is the U.S. government's official web portal to all federal, state and local government web resources and services.